Time;durP1;ratioP1;P1;durP2;ratioP2;P2;SDS_P1;SDS_P2;PMS_P1;PMS_P2;Temp;Humidity;BMP_temperature;BMP_pressure;BME280_temperature;BME280_humidity;BME280_pressure;Samples;Min_cycle;Max_cycle;Signal;HPM_P1;HPM_P2
2021/04/02 00:02:00;;;;;;;8.55;5.78;;;7.20;99.90;;;;;;5091437;28;20205;-80
2021/04/02 00:04:27;;;;;;;9.65;6.57;;;7.30;99.90;;;;;;5076862;28;20210;-84
2021/04/02 00:06:54;;;;;;;10.15;6.85;;;7.30;99.90;;;;;;5080436;28;20220;-82
2021/04/02 00:09:20;;;;;;;13.95;7.28;;;7.30;99.90;;;;;;5088926;28;20268;-83
2021/04/02 00:15:25;;;;;;;10.45;6.95;;;7.20;99.90;;;;;;5040044;28;20202;-83
2021/04/02 00:20:57;;;;;;;13.95;7.25;;;7.10;99.90;;;;;;5024325;28;20253;-82
2021/04/02 00:24:01;;;;;;;13.43;7.22;;;7.00;99.90;;;;;;5055296;28;20276;-83
2021/04/02 00:26:27;;;;;;;9.80;7.40;;;7.00;99.90;;;;;;5083821;28;20769;-83
2021/04/02 00:29:14;;;;;;;10.13;7.22;;;7.00;99.90;;;;;;5081871;28;20215;-83
2021/04/02 00:31:42;;;;;;;11.43;7.95;;;6.80;99.90;;;;;;5080649;28;20275;-82
2021/04/02 00:37:31;;;;;;;9.05;7.13;;;7.00;99.90;;;;;;5081940;28;20163;-82
2021/04/02 00:40:30;;;;;;;9.85;7.38;;;7.00;99.90;;;;;;5080364;28;20254;-83
2021/04/02 00:43:06;;;;;;;8.52;7.40;;;7.00;99.90;;;;;;5081036;28;20187;-79
2021/04/02 00:45:33;;;;;;;9.10;6.72;;;6.90;99.90;;;;;;5081307;28;20191;-79
2021/04/02 00:48:09;;;;;;;9.88;7.75;;;6.90;99.90;;;;;;5082841;28;20188;-79
2021/04/02 00:50:40;;;;;;;8.27;7.25;;;6.90;99.90;;;;;;5098662;28;20204;-79
2021/04/02 00:53:10;;;;;;;9.30;7.28;;;6.80;99.90;;;;;;5099278;28;20198;-82
2021/04/02 00:55:53;;;;;;;10.77;7.13;;;6.80;99.90;;;;;;5096498;28;20268;-83
2021/04/02 00:58:25;;;;;;;7.90;6.55;;;6.80;99.90;;;;;;5088553;28;20310;-82
2021/04/02 01:00:53;;;;;;;8.15;6.70;;;6.60;99.90;;;;;;5092914;28;20199;-82
2021/04/02 01:03:21;;;;;;;9.48;7.97;;;6.70;99.90;;;;;;5087140;28;20207;-83
2021/04/02 01:05:50;;;;;;;11.77;7.25;;;6.70;99.90;;;;;;5080560;28;20207;-83
2021/04/02 01:08:38;;;;;;;10.20;7.80;;;6.70;99.90;;;;;;5077404;28;20296;-82
2021/04/02 01:14:37;;;;;;;11.73;7.65;;;6.70;99.90;;;;;;5000388;28;20258;-82
2021/04/02 01:17:04;;;;;;;8.20;7.15;;;6.60;99.90;;;;;;5063389;28;20211;-82
2021/04/02 01:19:38;;;;;;;12.25;8.30;;;6.70;99.90;;;;;;5086817;28;20219;-83
2021/04/02 01:22:15;;;;;;;10.05;8.70;;;6.70;99.90;;;;;;5085280;28;20269;-82
2021/04/02 01:25:07;;;;;;;9.88;8.60;;;6.60;99.90;;;;;;5083187;28;20210;-83
2021/04/02 01:28:06;;;;;;;9.30;8.30;;;6.50;99.90;;;;;;5078256;28;20408;-82
2021/04/02 01:30:35;;;;;;;8.88;7.95;;;6.50;99.90;;;;;;5077905;28;20287;-83
2021/04/02 01:33:03;;;;;;;13.35;8.25;;;6.40;99.90;;;;;;5076326;28;20224;-84
2021/04/02 01:35:35;;;;;;;12.68;8.23;;;6.40;99.90;;;;;;5075620;28;20285;-82
2021/04/02 01:38:06;;;;;;;15.38;9.95;;;6.40;99.90;;;;;;5081819;28;20213;-83
2021/04/02 01:40:39;;;;;;;10.40;9.30;;;6.40;99.90;;;;;;5075180;28;20254;-83
2021/04/02 01:43:10;;;;;;;10.93;9.05;;;6.40;99.90;;;;;;5083336;28;20844;-83
2021/04/02 01:45:40;;;;;;;11.32;9.05;;;6.40;99.90;;;;;;5075904;28;20203;-83
2021/04/02 01:48:08;;;;;;;12.90;9.20;;;6.40;99.90;;;;;;5074550;28;20227;-83
2021/04/02 01:50:38;;;;;;;11.75;8.40;;;6.20;99.90;;;;;;5075208;28;20661;-83
2021/04/02 01:53:08;;;;;;;9.75;8.55;;;6.40;99.90;;;;;;5084057;28;20222;-83
2021/04/02 01:55:35;;;;;;;9.88;8.25;;;6.40;99.90;;;;;;5083749;28;20230;-84
2021/04/02 01:58:02;;;;;;;9.25;8.25;;;6.40;99.90;;;;;;5083547;28;20210;-83
2021/04/02 02:00:32;;;;;;;9.82;8.10;;;6.40;99.90;;;;;;5071088;28;20198;-83
2021/04/02 02:03:03;;;;;;;12.05;9.35;;;6.40;99.90;;;;;;5080409;28;20218;-83
2021/04/02 02:05:31;;;;;;;11.93;8.50;;;6.40;99.90;;;;;;5086566;28;20205;-83
2021/04/02 02:08:00;;;;;;;11.13;9.10;;;6.40;99.90;;;;;;5083649;28;20825;-82
2021/04/02 02:10:27;;;;;;;9.32;8.32;;;6.30;99.90;;;;;;5094379;28;20310;-83
2021/04/02 02:12:55;;;;;;;10.88;9.13;;;6.40;99.90;;;;;;5083392;28;20183;-83
2021/04/02 02:15:24;;;;;;;10.30;9.27;;;6.40;99.90;;;;;;5074881;28;20254;-83
2021/04/02 02:17:59;;;;;;;12.55;9.10;;;6.40;99.90;;;;;;5079348;28;20207;-84
2021/04/02 02:20:31;;;;;;;10.27;8.20;;;6.40;99.90;;;;;;5079445;28;20195;-83
2021/04/02 02:22:59;;;;;;;9.40;7.10;;;6.40;99.90;;;;;;5086544;28;20229;-83
2021/04/02 02:25:27;;;;;;;10.05;7.68;;;6.40;99.90;;;;;;5083302;28;20264;-83
2021/04/02 02:27:54;;;;;;;10.38;8.75;;;6.40;99.90;;;;;;5082266;28;20538;-83
2021/04/02 02:30:24;;;;;;;9.80;8.52;;;6.40;99.90;;;;;;5072247;28;20698;-82
2021/04/02 02:33:06;;;;;;;8.93;7.72;;;6.40;99.90;;;;;;5083786;28;20209;-83
2021/04/02 02:35:35;;;;;;;11.25;10.05;;;6.30;99.90;;;;;;5072055;28;20210;-83
2021/04/02 02:38:02;;;;;;;10.73;9.73;;;6.40;99.90;;;;;;5082910;28;20203;-83
2021/04/02 02:40:31;;;;;;;10.27;8.30;;;6.30;99.90;;;;;;5081815;28;20199;-83
2021/04/02 02:43:00;;;;;;;10.98;9.68;;;6.30;99.90;;;;;;5079126;28;20215;-83
2021/04/02 02:45:28;;;;;;;9.02;8.02;;;6.40;99.90;;;;;;5083782;28;20263;-83
2021/04/02 02:47:55;;;;;;;12.93;8.60;;;6.30;99.90;;;;;;5075300;28;20198;-83
2021/04/02 02:50:25;;;;;;;11.20;9.15;;;6.10;99.90;;;;;;5080247;28;20212;-82
2021/04/02 02:52:54;;;;;;;11.40;9.07;;;6.20;99.90;;;;;;5084444;28;20238;-82
2021/04/02 03:02:11;;;;;;;9.73;8.07;;;6.20;99.90;;;;;;5069503;28;20203;-83
2021/04/02 03:05:22;;;;;;;11.02;9.13;;;6.10;99.90;;;;;;5082743;28;20274;-83
2021/04/02 03:14:34;;;;;;;10.65;9.55;;;6.10;99.90;;;;;;5078651;28;20550;-83
2021/04/02 03:17:56;;;;;;;13.48;10.90;;;6.00;99.90;;;;;;5084412;28;20261;-83
2021/04/02 03:20:24;;;;;;;17.85;10.70;;;6.00;99.90;;;;;;5063229;28;20187;-83
2021/04/02 03:22:52;;;;;;;14.98;12.68;;;5.90;99.90;;;;;;5070220;28;20204;-83
2021/04/02 03:25:28;;;;;;;18.02;12.35;;;6.00;99.90;;;;;;5077454;28;20171;-82
2021/04/02 03:27:56;;;;;;;18.13;12.57;;;5.90;99.90;;;;;;5100797;28;20246;-82
2021/04/02 03:30:25;;;;;;;16.70;13.45;;;5.70;99.90;;;;;;5096321;28;20226;-83
2021/04/02 03:32:55;;;;;;;18.70;14.65;;;5.90;99.90;;;;;;5098960;28;20203;-83
2021/04/02 03:35:23;;;;;;;27.83;18.80;;;5.90;99.90;;;;;;5087108;28;20184;-84
2021/04/02 03:37:55;;;;;;;29.13;19.30;;;5.90;99.90;;;;;;5100191;28;20208;-83
2021/04/02 03:43:10;;;;;;;44.63;22.42;;;5.80;99.90;;;;;;5092368;28;20248;-83
2021/04/02 03:45:39;;;;;;;39.60;23.15;;;5.80;99.90;;;;;;5090173;28;20197;-84
2021/04/02 03:48:11;;;;;;;42.00;20.95;;;5.70;99.90;;;;;;5091132;28;20222;-84
2021/04/02 03:50:42;;;;;;;37.10;21.48;;;5.50;99.90;;;;;;5086689;28;20317;-82
2021/04/02 03:53:20;;;;;;;34.15;18.60;;;5.60;99.90;;;;;;5082584;28;20207;-83
2021/04/02 03:55:50;;;;;;;36.05;19.15;;;5.60;99.90;;;;;;5093692;28;20210;-82
2021/04/02 03:58:19;;;;;;;29.58;18.98;;;5.70;99.90;;;;;;5092262;28;20236;-82
2021/04/02 04:00:51;;;;;;;27.17;17.17;;;5.80;99.90;;;;;;5086366;28;20180;-82
2021/04/02 04:03:27;;;;;;;27.92;16.17;;;5.80;99.90;;;;;;5090085;28;20226;-83
2021/04/02 04:05:57;;;;;;;24.83;12.27;;;6.00;99.90;;;;;;5096273;28;20209;-82
2021/04/02 04:08:37;;;;;;;21.10;12.65;;;6.10;99.90;;;;;;5084756;28;20296;-83
2021/04/02 04:11:33;;;;;;;16.48;12.07;;;6.10;99.90;;;;;;5089149;28;20222;-81
2021/04/02 04:14:02;;;;;;;16.98;9.55;;;6.10;99.90;;;;;;5091381;28;20211;-83
2021/04/02 04:16:32;;;;;;;18.50;9.27;;;6.20;99.90;;;;;;5089225;28;20245;-82
2021/04/02 04:19:13;;;;;;;12.05;7.00;;;6.30;99.90;;;;;;5096150;28;20231;-84
2021/04/02 04:21:44;;;;;;;12.00;6.35;;;6.40;99.90;;;;;;5084482;28;20202;-83
2021/04/02 04:24:29;;;;;;;7.38;5.63;;;6.40;99.90;;;;;;5096401;28;20210;-83
2021/04/02 04:31:10;;;;;;;9.98;5.00;;;6.40;99.90;;;;;;5087541;28;20243;-84
2021/04/02 04:40:42;;;;;;;9.52;4.63;;;6.70;99.90;;;;;;5080814;28;20195;-81
2021/04/02 04:43:17;;;;;;;7.88;4.10;;;6.70;99.90;;;;;;5087569;28;20216;-83
2021/04/02 04:45:44;;;;;;;12.15;4.50;;;6.80;99.90;;;;;;5078358;28;20209;-83
2021/04/02 04:48:11;;;;;;;4.57;4.18;;;6.90;99.90;;;;;;5089879;28;20216;-83
2021/04/02 04:50:43;;;;;;;6.28;3.92;;;6.80;99.90;;;;;;5089328;28;20235;-83
2021/04/02 04:53:55;;;;;;;11.38;4.63;;;6.90;99.90;;;;;;5084101;28;20270;-83
2021/04/02 04:56:29;;;;;;;7.15;4.68;;;6.90;99.90;;;;;;5080108;28;20222;-82
2021/04/02 04:59:01;;;;;;;12.40;4.10;;;6.90;99.90;;;;;;5087445;28;20226;-83
2021/04/02 05:02:21;;;;;;;9.02;5.30;;;6.80;99.90;;;;;;5077813;28;20196;-83
2021/04/02 05:04:50;;;;;;;7.97;4.70;;;6.90;99.90;;;;;;5017726;28;20227;-83
2021/04/02 05:07:18;;;;;;;10.70;5.07;;;6.90;99.90;;;;;;5082626;28;20214;-83
2021/04/02 05:10:33;;;;;;;10.60;4.65;;;6.90;99.90;;;;;;5083632;28;20611;-83
2021/04/02 05:13:02;;;;;;;9.23;5.18;;;7.10;99.90;;;;;;5081714;28;20205;-83
2021/04/02 05:15:30;;;;;;;10.57;5.40;;;7.10;99.90;;;;;;5084164;28;20238;-83
2021/04/02 05:18:32;;;;;;;7.28;4.80;;;7.10;99.90;;;;;;5081479;28;20366;-83
2021/04/02 05:21:07;;;;;;;5.95;4.35;;;7.20;99.90;;;;;;5026879;28;20223;-83
2021/04/02 05:24:02;;;;;;;12.30;4.80;;;7.10;99.90;;;;;;5082954;28;20204;-83
2021/04/02 05:26:33;;;;;;;13.13;5.10;;;7.10;99.90;;;;;;5079877;28;20209;-83
2021/04/02 05:29:01;;;;;;;6.80;4.72;;;6.90;99.90;;;;;;5086236;28;20218;-82
2021/04/02 05:31:27;;;;;;;6.75;3.83;;;7.10;99.90;;;;;;5075808;28;20217;-84
2021/04/02 05:34:00;;;;;;;14.07;7.05;;;7.20;99.90;;;;;;5081753;28;20203;-83
2021/04/02 05:36:37;;;;;;;16.05;4.97;;;7.20;99.90;;;;;;5077370;28;20206;-84
2021/04/02 05:39:08;;;;;;;13.60;4.90;;;7.30;99.90;;;;;;5085995;28;20306;-84
2021/04/02 05:41:45;;;;;;;12.23;5.35;;;7.30;99.90;;;;;;5082471;28;20219;-84
2021/04/02 05:44:26;;;;;;;9.40;4.78;;;7.20;99.90;;;;;;5083598;28;20188;-84
2021/04/02 05:49:58;;;;;;;7.60;4.13;;;7.40;99.90;;;;;;5034492;28;20243;-70
2021/04/02 05:52:25;;;;;;;10.65;4.72;;;7.40;99.90;;;;;;5046809;28;20230;-71
2021/04/02 05:54:53;;;;;;;10.73;4.65;;;7.40;99.90;;;;;;5041750;28;20197;-71
2021/04/02 05:57:20;;;;;;;11.95;4.80;;;7.50;99.90;;;;;;5042520;28;20259;-71
2021/04/02 05:59:48;;;;;;;10.73;4.95;;;7.50;99.90;;;;;;5047847;28;20215;-71
2021/04/02 06:02:15;;;;;;;9.93;4.20;;;7.50;99.90;;;;;;5045530;28;20200;-71
2021/04/02 06:04:42;;;;;;;10.15;3.60;;;7.50;99.90;;;;;;5040640;28;20206;-70
2021/04/02 06:07:08;;;;;;;14.10;4.90;;;7.50;99.90;;;;;;5042775;28;20241;-69
2021/04/02 06:09:35;;;;;;;23.17;4.03;;;7.50;99.90;;;;;;5046390;28;20204;-69
2021/04/02 06:12:02;;;;;;;12.73;3.70;;;7.60;99.90;;;;;;5039176;28;20210;-69
2021/04/02 06:14:29;;;;;;;12.70;4.03;;;7.60;99.90;;;;;;5043555;28;20232;-68
2021/04/02 06:16:56;;;;;;;13.05;3.33;;;7.60;99.90;;;;;;5044499;28;20228;-70
2021/04/02 06:19:23;;;;;;;13.07;3.55;;;7.60;99.90;;;;;;5045902;28;20196;-72
2021/04/02 06:21:52;;;;;;;10.52;4.13;;;7.50;99.90;;;;;;5042819;28;20197;-74
2021/04/02 06:24:37;;;;;;;16.00;4.18;;;7.50;99.90;;;;;;5040145;28;20239;-71
2021/04/02 06:27:05;;;;;;;6.22;3.72;;;7.50;99.90;;;;;;5031286;28;20218;-72
2021/04/02 06:29:37;;;;;;;11.63;4.30;;;7.60;99.90;;;;;;5033355;28;20259;-71
2021/04/02 06:32:07;;;;;;;7.15;3.85;;;7.70;99.90;;;;;;5044376;28;20638;-70
2021/04/02 06:34:34;;;;;;;12.98;4.28;;;7.70;99.90;;;;;;5045236;28;20217;-71
2021/04/02 06:37:01;;;;;;;17.05;5.57;;;7.80;99.90;;;;;;5037740;28;20313;-70
2021/04/02 06:39:32;;;;;;;11.40;4.05;;;8.00;99.90;;;;;;5035859;28;20244;-69
2021/04/02 06:42:00;;;;;;;6.00;3.33;;;8.20;99.90;;;;;;5046433;28;20584;-70
2021/04/02 06:44:31;;;;;;;9.68;3.72;;;8.30;99.90;;;;;;5047178;28;20218;-70
2021/04/02 06:46:58;;;;;;;8.43;3.35;;;8.40;99.90;;;;;;5046460;28;20276;-69
2021/04/02 06:49:26;;;;;;;9.30;3.58;;;8.60;99.90;;;;;;5038941;28;20283;-68
2021/04/02 06:51:54;;;;;;;13.63;5.07;;;8.90;99.90;;;;;;5031910;28;20701;-68
2021/04/02 06:54:23;;;;;;;5.85;3.15;;;8.90;99.90;;;;;;5040546;28;20211;-68
2021/04/02 06:57:01;;;;;;;7.53;3.40;;;8.90;99.90;;;;;;5048874;28;20685;-67
2021/04/02 06:59:31;;;;;;;10.60;3.58;;;8.90;99.90;;;;;;5038401;28;20203;-69
2021/04/02 07:01:58;;;;;;;18.20;5.07;;;8.70;99.90;;;;;;5049041;28;20649;-66
2021/04/02 07:04:26;;;;;;;20.73;3.70;;;8.70;99.90;;;;;;5046523;28;20204;-68
2021/04/02 07:06:53;;;;;;;13.10;3.40;;;8.50;99.90;;;;;;5042218;28;20223;-69
2021/04/02 07:09:22;;;;;;;8.73;3.00;;;8.60;99.90;;;;;;5041122;28;20237;-68
2021/04/02 07:11:52;;;;;;;8.68;3.80;;;8.70;99.90;;;;;;5043168;28;20664;-67
2021/04/02 07:14:22;;;;;;;6.00;2.70;;;8.70;99.90;;;;;;5041766;28;20214;-67
2021/04/02 07:16:50;;;;;;;13.25;2.90;;;8.60;99.90;;;;;;5044865;28;20280;-66
2021/04/02 07:19:18;;;;;;;6.93;3.38;;;8.40;99.90;;;;;;5046383;28;20558;-70
2021/04/02 07:21:49;;;;;;;9.50;3.28;;;8.50;99.90;;;;;;5043470;28;20220;-70
2021/04/02 07:24:18;;;;;;;10.95;3.25;;;8.50;99.90;;;;;;5046965;28;20211;-69
2021/04/02 07:26:46;;;;;;;8.38;3.70;;;8.40;99.90;;;;;;5039522;28;20777;-68
2021/04/02 07:29:15;;;;;;;13.93;4.28;;;8.50;99.90;;;;;;5041260;28;20203;-70
2021/04/02 07:31:42;;;;;;;7.25;3.28;;;8.50;99.90;;;;;;5048689;28;20231;-70
2021/04/02 07:34:09;;;;;;;9.43;2.80;;;8.80;99.90;;;;;;5050711;28;20295;-70
2021/04/02 07:36:36;;;;;;;17.70;4.35;;;8.80;99.90;;;;;;5048523;28;20263;-69
2021/04/02 07:39:07;;;;;;;9.95;3.58;;;8.70;99.90;;;;;;5040811;28;20203;-70
2021/04/02 07:41:38;;;;;;;9.55;3.95;;;8.80;99.90;;;;;;5042316;28;20252;-69
2021/04/02 07:44:07;;;;;;;10.65;3.63;;;8.90;99.90;;;;;;5038205;28;20203;-68
2021/04/02 07:46:34;;;;;;;11.70;3.17;;;8.80;99.90;;;;;;5040533;28;20219;-69
2021/04/02 07:49:04;;;;;;;4.70;2.95;;;8.90;99.90;;;;;;5050688;28;20262;-71
2021/04/02 07:51:43;;;;;;;12.88;3.40;;;8.80;99.90;;;;;;5045176;28;20215;-69
2021/04/02 07:54:19;;;;;;;10.48;3.35;;;8.90;99.90;;;;;;5041236;28;20231;-66
2021/04/02 07:56:49;;;;;;;8.00;2.80;;;9.00;99.90;;;;;;5057164;28;20221;-69
2021/04/02 07:59:16;;;;;;;14.73;3.60;;;8.80;99.90;;;;;;5054067;28;20215;-69
2021/04/02 08:01:57;;;;;;;9.23;3.80;;;8.90;99.90;;;;;;5053775;28;20203;-67
2021/04/02 08:04:36;;;;;;;8.45;3.88;;;9.00;99.90;;;;;;5037010;28;20200;-68
2021/04/02 08:07:02;;;;;;;8.57;4.05;;;9.00;99.90;;;;;;5044586;28;20234;-67
2021/04/02 08:09:31;;;;;;;9.48;3.47;;;9.10;99.90;;;;;;5042376;28;20211;-68
2021/04/02 08:11:59;;;;;;;10.35;3.42;;;9.10;99.90;;;;;;5053142;28;20218;-68
2021/04/02 08:14:36;;;;;;;5.20;3.20;;;9.00;99.90;;;;;;5043945;28;20283;-69
2021/04/02 08:17:07;;;;;;;7.93;3.15;;;9.00;99.90;;;;;;5042006;28;20258;-67
2021/04/02 08:19:36;;;;;;;12.63;3.58;;;9.00;99.90;;;;;;5039628;28;20547;-69
2021/04/02 08:22:05;;;;;;;17.70;3.47;;;9.00;99.90;;;;;;5047688;28;20609;-68
2021/04/02 08:24:35;;;;;;;25.13;5.53;;;9.00;99.90;;;;;;5042792;28;20666;-68
2021/04/02 08:27:03;;;;;;;9.95;3.05;;;9.10;99.90;;;;;;5042314;28;20218;-68
2021/04/02 08:29:31;;;;;;;15.80;4.07;;;9.30;99.90;;;;;;5041963;28;20269;-68
2021/04/02 08:31:59;;;;;;;11.95;3.38;;;9.50;99.90;;;;;;5052325;28;20226;-68
2021/04/02 08:34:29;;;;;;;9.32;2.92;;;9.80;99.80;;;;;;5048504;28;20245;-71
2021/04/02 08:36:58;;;;;;;13.95;4.70;;;10.10;98.30;;;;;;5047026;28;20255;-69
2021/04/02 08:39:26;;;;;;;6.13;2.83;;;10.50;97.70;;;;;;5039046;28;20290;-73
2021/04/02 08:42:00;;;;;;;11.15;4.97;;;11.20;96.10;;;;;;5055402;28;20193;-68
2021/04/02 08:44:32;;;;;;;8.95;3.13;;;11.50;94.90;;;;;;5047685;28;20207;-69
2021/04/02 08:47:00;;;;;;;10.90;3.42;;;11.60;94.60;;;;;;5046687;28;20583;-69
2021/04/02 08:49:35;;;;;;;8.45;3.40;;;11.70;94.20;;;;;;5044360;28;20271;-69
2021/04/02 08:52:07;;;;;;;9.45;3.58;;;11.60;93.50;;;;;;5045396;28;20620;-71
2021/04/02 08:54:35;;;;;;;8.30;3.33;;;11.50;93.60;;;;;;5037904;28;20205;-68
2021/04/02 08:57:05;;;;;;;9.00;3.30;;;12.30;93.70;;;;;;5050269;28;20276;-69
2021/04/02 08:59:34;;;;;;;13.20;4.28;;;13.00;91.30;;;;;;5036448;28;20265;-70
2021/04/02 09:02:02;;;;;;;12.23;4.20;;;12.80;91.00;;;;;;5035646;28;20237;-70
2021/04/02 09:04:29;;;;;;;14.70;4.30;;;12.50;91.30;;;;;;5040819;28;20207;-69
2021/04/02 09:06:57;;;;;;;13.90;4.07;;;12.30;92.10;;;;;;5042882;28;20223;-69
2021/04/02 09:09:29;;;;;;;9.40;5.07;;;12.20;92.00;;;;;;5037922;28;20233;-70
2021/04/02 09:11:57;;;;;;;17.42;7.63;;;11.90;92.50;;;;;;5038244;28;20258;-69
2021/04/02 09:14:26;;;;;;;20.63;5.40;;;11.70;92.60;;;;;;5046291;28;20279;-75
2021/04/02 09:16:57;;;;;;;10.00;4.15;;;11.40;93.50;;;;;;5046933;28;20228;-73
2021/04/02 09:19:26;;;;;;;10.93;5.30;;;11.40;94.00;;;;;;5041391;28;20208;-67
2021/04/02 09:21:54;;;;;;;21.05;4.05;;;11.40;94.00;;;;;;5053246;28;20245;-69
2021/04/02 09:24:22;;;;;;;9.73;4.18;;;11.20;94.00;;;;;;5035736;28;20205;-69
2021/04/02 09:26:50;;;;;;;12.18;3.88;;;11.20;94.10;;;;;;5044017;28;20230;-70
2021/04/02 09:29:19;;;;;;;18.23;4.28;;;11.00;94.40;;;;;;5034890;28;20200;-69
2021/04/02 09:31:47;;;;;;;14.75;4.85;;;10.80;94.70;;;;;;5049438;28;20310;-71
2021/04/02 09:34:18;;;;;;;7.63;3.20;;;10.50;95.60;;;;;;5040130;28;20204;-70
2021/04/02 09:36:47;;;;;;;14.38;4.18;;;10.10;96.20;;;;;;5044636;28;20277;-69
2021/04/02 09:39:16;;;;;;;17.73;3.28;;;9.90;97.40;;;;;;5046839;28;20313;-71
2021/04/02 09:41:48;;;;;;;13.95;5.57;;;9.90;97.80;;;;;;5045846;28;20638;-69
2021/04/02 09:44:17;;;;;;;14.27;4.15;;;9.90;98.00;;;;;;5041876;28;20257;-71
2021/04/02 09:46:45;;;;;;;9.00;3.30;;;9.80;98.50;;;;;;5038213;28;20297;-70
2021/04/02 09:49:14;;;;;;;11.32;3.97;;;9.70;99.10;;;;;;5043722;28;20223;-69
2021/04/02 09:51:44;;;;;;;17.88;4.65;;;9.70;99.30;;;;;;5035766;28;20252;-70
2021/04/02 09:54:13;;;;;;;8.35;3.30;;;9.50;99.80;;;;;;5037837;28;20246;-70
2021/04/02 09:56:40;;;;;;;10.77;5.10;;;9.40;99.90;;;;;;5042784;28;20282;-71
2021/04/02 09:59:08;;;;;;;9.25;2.90;;;9.40;99.90;;;;;;5042425;28;20216;-69
2021/04/02 10:01:36;;;;;;;10.40;3.13;;;9.50;99.90;;;;;;5039178;28;20232;-70
2021/04/02 10:04:04;;;;;;;12.07;4.88;;;9.50;99.90;;;;;;5044087;28;20253;-71
2021/04/02 10:06:31;;;;;;;20.05;5.05;;;9.40;99.90;;;;;;5034188;28;20234;-72
2021/04/02 10:08:59;;;;;;;14.77;4.70;;;9.20;99.90;;;;;;5043652;28;20210;-67
2021/04/02 10:11:26;;;;;;;19.85;6.72;;;9.20;99.90;;;;;;5039180;28;20593;-69
2021/04/02 10:13:53;;;;;;;9.07;3.67;;;9.10;99.90;;;;;;5040042;28;20207;-69
2021/04/02 10:16:21;;;;;;;18.63;4.95;;;9.10;99.90;;;;;;5042784;28;20689;-69
2021/04/02 10:18:49;;;;;;;17.65;4.43;;;8.90;99.90;;;;;;5046113;28;20198;-71
2021/04/02 10:21:16;;;;;;;11.18;4.38;;;8.80;99.90;;;;;;5041185;28;20195;-70
2021/04/02 10:23:46;;;;;;;6.05;2.78;;;8.80;99.90;;;;;;5039373;28;20676;-68
2021/04/02 10:26:12;;;;;;;18.52;4.07;;;8.80;99.90;;;;;;5050718;28;20232;-71
2021/04/02 10:28:39;;;;;;;9.98;3.83;;;8.80;99.90;;;;;;5050594;28;20228;-69
2021/04/02 10:31:06;;;;;;;17.13;4.65;;;8.90;99.90;;;;;;5040150;28;20219;-71
2021/04/02 10:33:33;;;;;;;10.60;3.63;;;9.10;99.90;;;;;;5045589;28;20229;-71
2021/04/02 10:36:00;;;;;;;8.85;3.75;;;9.10;99.90;;;;;;5047297;28;20234;-72
2021/04/02 10:38:27;;;;;;;7.95;5.15;;;9.20;99.90;;;;;;5035467;28;20207;-69
2021/04/02 10:40:55;;;;;;;14.88;4.30;;;9.20;99.90;;;;;;5041574;28;20207;-71
2021/04/02 10:43:22;;;;;;;15.00;5.93;;;9.30;99.90;;;;;;5040675;28;20727;-69
2021/04/02 10:45:49;;;;;;;19.00;3.92;;;9.20;99.90;;;;;;5050518;28;20238;-70
2021/04/02 10:48:16;;;;;;;11.93;3.65;;;9.00;99.90;;;;;;5033972;28;20219;-69
2021/04/02 10:50:44;;;;;;;22.65;5.28;;;9.00;99.90;;;;;;5035260;28;20276;-70
2021/04/02 10:53:12;;;;;;;12.85;4.10;;;9.00;99.90;;;;;;5037565;28;20524;-71
2021/04/02 10:55:38;;;;;;;10.02;3.65;;;9.10;99.90;;;;;;5040519;28;20223;-70
2021/04/02 10:58:07;;;;;;;14.18;5.20;;;9.20;99.90;;;;;;5050298;28;20199;-69
2021/04/02 11:00:34;;;;;;;10.25;4.10;;;9.30;99.90;;;;;;5036243;28;20203;-69
2021/04/02 11:03:02;;;;;;;18.00;5.40;;;9.30;99.90;;;;;;5038861;28;20199;-72
2021/04/02 11:05:28;;;;;;;8.85;3.90;;;9.50;99.90;;;;;;5044517;28;20229;-68
2021/04/02 11:07:55;;;;;;;12.50;4.00;;;9.60;99.70;;;;;;5038380;28;20562;-72
2021/04/02 11:10:22;;;;;;;14.45;3.70;;;9.80;99.50;;;;;;5039321;28;20212;-70
2021/04/02 11:12:49;;;;;;;17.65;3.50;;;9.90;98.40;;;;;;5038409;28;20659;-70
2021/04/02 11:15:19;;;;;;;10.70;3.70;;;9.90;98.10;;;;;;5037210;28;20251;-71
2021/04/02 11:17:47;;;;;;;16.80;4.30;;;9.80;98.30;;;;;;5033178;28;20204;-71
2021/04/02 11:20:15;;;;;;;12.10;3.47;;;9.90;98.10;;;;;;5039356;28;20272;-72
2021/04/02 11:22:43;;;;;;;8.82;3.55;;;10.00;97.70;;;;;;5044566;28;20204;-73
2021/04/02 11:25:12;;;;;;;6.40;2.95;;;10.20;96.80;;;;;;5051496;28;20208;-71
2021/04/02 11:27:39;;;;;;;10.70;4.25;;;10.10;96.60;;;;;;5040189;28;20208;-73
2021/04/02 11:30:08;;;;;;;9.90;3.40;;;10.00;96.90;;;;;;5040926;28;20548;-70
2021/04/02 11:32:36;;;;;;;12.65;3.05;;;10.20;96.40;;;;;;5047396;28;20544;-70
2021/04/02 11:35:03;;;;;;;12.93;3.30;;;10.40;96.10;;;;;;5036286;28;20204;-71
2021/04/02 11:37:29;;;;;;;8.68;3.40;;;10.60;95.30;;;;;;5039807;28;20204;-73
2021/04/02 11:39:56;;;;;;;8.75;3.25;;;10.70;95.30;;;;;;5044086;28;20200;-74
2021/04/02 11:42:23;;;;;;;7.38;3.10;;;10.90;95.20;;;;;;5047965;28;20695;-73
2021/04/02 11:44:50;;;;;;;7.35;3.15;;;11.00;94.30;;;;;;5043070;28;20261;-71
2021/04/02 11:47:16;;;;;;;13.82;2.83;;;10.90;94.50;;;;;;5045766;28;20220;-74
2021/04/02 11:49:44;;;;;;;10.73;2.92;;;11.00;94.30;;;;;;5042490;28;20207;-71
2021/04/02 11:52:10;;;;;;;6.90;2.28;;;10.90;94.40;;;;;;5038674;28;20231;-73
2021/04/02 11:54:37;;;;;;;9.70;3.35;;;10.80;93.60;;;;;;5049905;28;20295;-72
2021/04/02 11:57:05;;;;;;;10.13;3.85;;;10.60;93.90;;;;;;5043009;28;20227;-71
2021/04/02 11:59:32;;;;;;;12.57;2.30;;;10.60;94.50;;;;;;5038203;28;20195;-71
2021/04/02 12:01:59;;;;;;;8.25;3.50;;;10.70;94.90;;;;;;5044335;28;20211;-71
2021/04/02 12:04:27;;;;;;;6.90;2.65;;;10.90;95.00;;;;;;5044988;28;20243;-71
2021/04/02 12:06:55;;;;;;;13.68;3.75;;;11.00;94.50;;;;;;5044834;28;20228;-71
2021/04/02 12:09:23;;;;;;;13.68;3.20;;;11.00;94.50;;;;;;5045498;28;20219;-73
2021/04/02 12:11:49;;;;;;;11.48;3.58;;;10.90;94.70;;;;;;5044519;28;20287;-71
2021/04/02 12:14:16;;;;;;;10.57;2.38;;;10.90;94.70;;;;;;5041947;28;20617;-72
2021/04/02 12:16:43;;;;;;;6.45;2.47;;;11.00;94.60;;;;;;5038717;28;20247;-72
2021/04/02 12:19:10;;;;;;;8.32;2.70;;;11.20;94.70;;;;;;5042382;28;20999;-70
2021/04/02 12:21:37;;;;;;;5.32;2.55;;;11.40;93.90;;;;;;5043332;28;20207;-70
2021/04/02 12:24:07;;;;;;;8.50;2.90;;;11.30;93.60;;;;;;5042015;28;20236;-70
2021/04/02 12:26:35;;;;;;;11.50;2.50;;;11.20;94.10;;;;;;5042529;28;20225;-71
2021/04/02 12:29:02;;;;;;;8.82;3.58;;;11.00;94.50;;;;;;5041791;28;20612;-71
2021/04/02 12:31:30;;;;;;;10.27;3.40;;;10.90;94.70;;;;;;5042939;28;20738;-70
2021/04/02 12:33:58;;;;;;;5.05;2.60;;;10.90;94.90;;;;;;5041715;28;20204;-72
2021/04/02 12:36:32;;;;;;;9.75;3.33;;;10.80;94.90;;;;;;5041254;28;20232;-70
2021/04/02 12:39:00;;;;;;;8.95;3.08;;;10.70;95.30;;;;;;5037676;28;20202;-68
2021/04/02 12:41:28;;;;;;;7.80;2.90;;;10.60;95.80;;;;;;5044111;28;20227;-70
2021/04/02 12:43:55;;;;;;;10.57;2.67;;;10.80;95.70;;;;;;5044668;28;20203;-68
2021/04/02 12:46:22;;;;;;;9.18;3.55;;;10.80;95.30;;;;;;5043821;28;20705;-69
2021/04/02 12:48:49;;;;;;;9.05;3.45;;;11.00;95.90;;;;;;5039266;28;20217;-69
2021/04/02 12:51:16;;;;;;;10.00;3.00;;;11.00;95.70;;;;;;5050523;28;20212;-68
2021/04/02 12:53:43;;;;;;;13.32;4.07;;;10.90;95.90;;;;;;5040690;28;20825;-69
2021/04/02 12:56:09;;;;;;;14.52;3.45;;;10.70;96.20;;;;;;5037809;28;20224;-67
2021/04/02 12:58:37;;;;;;;7.65;2.80;;;10.50;96.20;;;;;;5047390;28;20717;-69
2021/04/02 13:01:04;;;;;;;6.95;2.75;;;10.30;96.40;;;;;;5036791;28;20204;-70
2021/04/02 13:03:30;;;;;;;5.47;3.05;;;10.20;96.10;;;;;;5037356;28;20288;-69
2021/04/02 13:05:57;;;;;;;7.78;2.70;;;10.20;95.60;;;;;;5040212;28;20249;-68
2021/04/02 13:08:24;;;;;;;8.80;2.60;;;10.00;95.20;;;;;;5044213;28;20219;-68
2021/04/02 13:10:50;;;;;;;11.25;2.85;;;10.00;95.50;;;;;;5046380;28;20228;-67
2021/04/02 13:13:17;;;;;;;9.25;3.40;;;10.00;95.60;;;;;;5043430;28;20667;-69
2021/04/02 13:15:46;;;;;;;5.32;2.42;;;10.10;95.70;;;;;;5035734;28;20220;-69
2021/04/02 13:18:13;;;;;;;9.15;2.85;;;10.20;95.80;;;;;;5041146;28;20232;-70
2021/04/02 13:20:40;;;;;;;8.02;2.20;;;10.20;96.00;;;;;;5037495;28;20209;-68
2021/04/02 13:23:06;;;;;;;12.07;3.05;;;10.20;96.10;;;;;;5042375;28;20235;-68
2021/04/02 13:25:33;;;;;;;4.82;1.98;;;10.30;96.00;;;;;;5039772;28;20230;-66
2021/04/02 13:28:00;;;;;;;5.65;1.83;;;10.40;95.90;;;;;;5047885;28;20200;-67
2021/04/02 13:30:28;;;;;;;13.20;1.90;;;10.40;95.00;;;;;;5039843;28;20211;-69
2021/04/02 13:32:59;;;;;;;7.55;2.13;;;10.30;94.80;;;;;;5036758;28;20623;-69
2021/04/02 13:35:28;;;;;;;4.82;2.25;;;10.00;95.20;;;;;;5040731;28;20265;-69
2021/04/02 13:37:56;;;;;;;12.27;4.05;;;10.00;95.90;;;;;;5042572;28;20200;-69
2021/04/02 13:40:24;;;;;;;7.45;1.88;;;10.00;96.10;;;;;;5056969;28;20208;-69
2021/04/02 13:42:51;;;;;;;7.65;1.70;;;9.80;96.80;;;;;;5044611;28;20207;-70
2021/04/02 13:45:18;;;;;;;7.68;2.22;;;9.70;97.50;;;;;;5035247;28;20224;-70
2021/04/02 13:47:47;;;;;;;7.75;1.60;;;9.80;97.60;;;;;;5039052;28;20204;-70
2021/04/02 13:50:17;;;;;;;8.93;3.30;;;9.80;97.80;;;;;;5045128;28;20201;-71